sensor_id;sensor_type;location;lat;lon;timestamp;temperature;humidity
41904;DHT22;27586;51.124;4.182;2023-08-30T00:00:36;14.00;99.90
41904;DHT22;27586;51.124;4.182;2023-08-30T00:03:02;14.00;99.90
41904;DHT22;27586;51.124;4.182;2023-08-30T00:05:27;14.00;99.90
41904;DHT22;27586;51.124;4.182;2023-08-30T00:07:53;14.00;99.90
41904;DHT22;27586;51.124;4.182;2023-08-30T00:10:19;14.00;99.90
41904;DHT22;27586;51.124;4.182;2023-08-30T00:12:45;14.00;99.90
41904;DHT22;27586;51.124;4.182;2023-08-30T00:15:10;14.10;99.90
41904;DHT22;27586;51.124;4.182;2023-08-30T00:17:36;14.10;99.90
41904;DHT22;27586;51.124;4.182;2023-08-30T00:20:02;14.10;99.90
41904;DHT22;27586;51.124;4.182;2023-08-30T00:22:28;14.10;99.90
41904;DHT22;27586;51.124;4.182;2023-08-30T00:24:54;14.10;99.90
41904;DHT22;27586;51.124;4.182;2023-08-30T00:27:19;14.10;99.90
41904;DHT22;27586;51.124;4.182;2023-08-30T00:29:48;14.20;99.90
41904;DHT22;27586;51.124;4.182;2023-08-30T00:32:13;14.10;99.90
41904;DHT22;27586;51.124;4.182;2023-08-30T00:34:39;14.10;99.90
41904;DHT22;27586;51.124;4.182;2023-08-30T00:37:04;14.10;99.90
41904;DHT22;27586;51.124;4.182;2023-08-30T00:39:30;14.10;99.90
41904;DHT22;27586;51.124;4.182;2023-08-30T00:41:56;14.10;99.90
41904;DHT22;27586;51.124;4.182;2023-08-30T00:44:21;14.00;99.90
41904;DHT22;27586;51.124;4.182;2023-08-30T00:46:47;13.90;99.90
41904;DHT22;27586;51.124;4.182;2023-08-30T00:49:13;14.00;99.90
41904;DHT22;27586;51.124;4.182;2023-08-30T00:51:39;14.00;99.90
41904;DHT22;27586;51.124;4.182;2023-08-30T00:54:06;14.10;99.90
41904;DHT22;27586;51.124;4.182;2023-08-30T00:56:32;14.10;99.90
41904;DHT22;27586;51.124;4.182;2023-08-30T00:58:59;14.10;99.90
41904;DHT22;27586;51.124;4.182;2023-08-30T01:01:26;14.00;99.90
41904;DHT22;27586;51.124;4.182;2023-08-30T01:03:51;14.00;99.90
41904;DHT22;27586;51.124;4.182;2023-08-30T01:06:17;13.90;99.90
41904;DHT22;27586;51.124;4.182;2023-08-30T01:08:43;13.80;99.90
41904;DHT22;27586;51.124;4.182;2023-08-30T01:13:53;13.80;99.90
41904;DHT22;27586;51.124;4.182;2023-08-30T01:16:21;13.70;99.90
41904;DHT22;27586;51.124;4.182;2023-08-30T01:18:49;13.70;99.90
41904;DHT22;27586;51.124;4.182;2023-08-30T01:21:32;13.70;99.90
41904;DHT22;27586;51.124;4.182;2023-08-30T01:24:06;13.70;99.90
41904;DHT22;27586;51.124;4.182;2023-08-30T01:26:45;13.70;99.90
41904;DHT22;27586;51.124;4.182;2023-08-30T01:29:17;13.70;99.90
41904;DHT22;27586;51.124;4.182;2023-08-30T01:31:45;13.70;99.90
41904;DHT22;27586;51.124;4.182;2023-08-30T01:34:13;13.60;99.90
41904;DHT22;27586;51.124;4.182;2023-08-30T01:36:39;13.70;99.90
41904;DHT22;27586;51.124;4.182;2023-08-30T01:39:10;13.70;99.90
41904;DHT22;27586;51.124;4.182;2023-08-30T01:41:36;13.70;99.90
41904;DHT22;27586;51.124;4.182;2023-08-30T01:44:03;13.70;99.90
41904;DHT22;27586;51.124;4.182;2023-08-30T01:46:32;13.70;99.90
41904;DHT22;27586;51.124;4.182;2023-08-30T01:48:59;13.60;99.90
41904;DHT22;27586;51.124;4.182;2023-08-30T01:51:25;13.70;99.90
41904;DHT22;27586;51.124;4.182;2023-08-30T01:53:52;13.70;99.90
41904;DHT22;27586;51.124;4.182;2023-08-30T01:56:19;13.60;99.90
41904;DHT22;27586;51.124;4.182;2023-08-30T01:58:45;13.60;99.90
41904;DHT22;27586;51.124;4.182;2023-08-30T02:01:11;13.60;99.90
41904;DHT22;27586;51.124;4.182;2023-08-30T02:03:37;13.50;99.90
41904;DHT22;27586;51.124;4.182;2023-08-30T02:06:07;13.60;99.90
41904;DHT22;27586;51.124;4.182;2023-08-30T02:08:50;13.50;99.90
41904;DHT22;27586;51.124;4.182;2023-08-30T02:11:22;13.40;99.90
41904;DHT22;27586;51.124;4.182;2023-08-30T02:13:48;13.40;99.90
41904;DHT22;27586;51.124;4.182;2023-08-30T02:16:17;13.40;99.90
41904;DHT22;27586;51.124;4.182;2023-08-30T02:18:44;13.30;99.90
41904;DHT22;27586;51.124;4.182;2023-08-30T02:21:10;13.40;99.90
41904;DHT22;27586;51.124;4.182;2023-08-30T02:23:35;13.30;99.90
41904;DHT22;27586;51.124;4.182;2023-08-30T02:26:02;13.30;99.90
41904;DHT22;27586;51.124;4.182;2023-08-30T02:28:29;13.30;99.90
41904;DHT22;27586;51.124;4.182;2023-08-30T02:30:54;13.40;99.90
41904;DHT22;27586;51.124;4.182;2023-08-30T02:33:21;13.40;99.90
41904;DHT22;27586;51.124;4.182;2023-08-30T02:35:46;13.50;99.90
41904;DHT22;27586;51.124;4.182;2023-08-30T02:38:12;13.60;99.90
41904;DHT22;27586;51.124;4.182;2023-08-30T02:40:38;13.70;99.90
41904;DHT22;27586;51.124;4.182;2023-08-30T02:43:03;13.70;99.90
41904;DHT22;27586;51.124;4.182;2023-08-30T02:45:29;13.60;99.90
41904;DHT22;27586;51.124;4.182;2023-08-30T02:47:55;13.70;99.90
41904;DHT22;27586;51.124;4.182;2023-08-30T02:50:23;13.80;99.90
41904;DHT22;27586;51.124;4.182;2023-08-30T02:52:48;13.80;99.90
41904;DHT22;27586;51.124;4.182;2023-08-30T02:55:14;13.80;99.90
41904;DHT22;27586;51.124;4.182;2023-08-30T02:57:40;13.90;99.90
41904;DHT22;27586;51.124;4.182;2023-08-30T03:00:06;13.80;99.90
41904;DHT22;27586;51.124;4.182;2023-08-30T03:02:32;13.80;99.90
41904;DHT22;27586;51.124;4.182;2023-08-30T03:05:01;13.80;99.90
41904;DHT22;27586;51.124;4.182;2023-08-30T03:07:28;13.90;99.90
41904;DHT22;27586;51.124;4.182;2023-08-30T03:09:54;13.90;99.90
41904;DHT22;27586;51.124;4.182;2023-08-30T03:12:20;13.90;99.90
41904;DHT22;27586;51.124;4.182;2023-08-30T03:14:46;13.90;99.90
41904;DHT22;27586;51.124;4.182;2023-08-30T03:17:12;14.10;99.90
41904;DHT22;27586;51.124;4.182;2023-08-30T03:19:38;14.10;99.90
41904;DHT22;27586;51.124;4.182;2023-08-30T03:22:04;14.00;99.90
41904;DHT22;27586;51.124;4.182;2023-08-30T03:24:29;14.10;99.90
41904;DHT22;27586;51.124;4.182;2023-08-30T03:26:55;14.20;99.90
41904;DHT22;27586;51.124;4.182;2023-08-30T03:29:20;14.10;99.90
41904;DHT22;27586;51.124;4.182;2023-08-30T03:31:47;14.20;99.90
41904;DHT22;27586;51.124;4.182;2023-08-30T03:34:12;14.20;99.90
41904;DHT22;27586;51.124;4.182;2023-08-30T03:36:38;14.10;99.90
41904;DHT22;27586;51.124;4.182;2023-08-30T03:39:04;14.00;99.90
41904;DHT22;27586;51.124;4.182;2023-08-30T03:41:30;14.00;99.90
41904;DHT22;27586;51.124;4.182;2023-08-30T03:43:56;14.10;99.90
41904;DHT22;27586;51.124;4.182;2023-08-30T03:46:21;14.10;99.90
41904;DHT22;27586;51.124;4.182;2023-08-30T03:48:47;14.10;99.90
41904;DHT22;27586;51.124;4.182;2023-08-30T03:51:13;14.10;99.90
41904;DHT22;27586;51.124;4.182;2023-08-30T03:53:38;14.10;99.90
41904;DHT22;27586;51.124;4.182;2023-08-30T03:56:04;14.20;99.90
41904;DHT22;27586;51.124;4.182;2023-08-30T03:58:30;14.10;99.90
41904;DHT22;27586;51.124;4.182;2023-08-30T04:00:57;14.10;99.90
41904;DHT22;27586;51.124;4.182;2023-08-30T04:03:22;14.20;99.90
41904;DHT22;27586;51.124;4.182;2023-08-30T04:05:54;14.30;99.90
41904;DHT22;27586;51.124;4.182;2023-08-30T04:08:19;14.30;99.90
41904;DHT22;27586;51.124;4.182;2023-08-30T04:10:45;14.20;99.90
41904;DHT22;27586;51.124;4.182;2023-08-30T04:13:13;14.30;99.90
41904;DHT22;27586;51.124;4.182;2023-08-30T04:15:39;14.40;99.90
41904;DHT22;27586;51.124;4.182;2023-08-30T04:18:05;14.40;99.90
41904;DHT22;27586;51.124;4.182;2023-08-30T04:20:32;14.40;99.90
41904;DHT22;27586;51.124;4.182;2023-08-30T04:22:59;14.40;99.90
41904;DHT22;27586;51.124;4.182;2023-08-30T04:25:27;14.50;99.90
41904;DHT22;27586;51.124;4.182;2023-08-30T04:27:53;14.40;99.90
41904;DHT22;27586;51.124;4.182;2023-08-30T04:30:19;14.30;99.90
41904;DHT22;27586;51.124;4.182;2023-08-30T04:32:44;14.30;99.90
41904;DHT22;27586;51.124;4.182;2023-08-30T04:35:10;14.10;99.90
41904;DHT22;27586;51.124;4.182;2023-08-30T04:37:36;14.10;99.90
41904;DHT22;27586;51.124;4.182;2023-08-30T04:40:04;14.10;99.90
41904;DHT22;27586;51.124;4.182;2023-08-30T04:42:30;14.00;99.90
41904;DHT22;27586;51.124;4.182;2023-08-30T04:44:55;13.90;99.90
41904;DHT22;27586;51.124;4.182;2023-08-30T04:47:21;13.90;99.90
41904;DHT22;27586;51.124;4.182;2023-08-30T04:49:53;13.80;99.90
41904;DHT22;27586;51.124;4.182;2023-08-30T04:52:19;13.90;99.90
41904;DHT22;27586;51.124;4.182;2023-08-30T04:54:45;13.90;99.90
41904;DHT22;27586;51.124;4.182;2023-08-30T04:57:14;13.90;99.90
41904;DHT22;27586;51.124;4.182;2023-08-30T04:59:41;14.00;99.90
41904;DHT22;27586;51.124;4.182;2023-08-30T05:02:07;14.00;99.90
41904;DHT22;27586;51.124;4.182;2023-08-30T05:04:33;13.90;99.90
41904;DHT22;27586;51.124;4.182;2023-08-30T05:06:59;14.00;99.90
41904;DHT22;27586;51.124;4.182;2023-08-30T05:09:25;14.00;99.90
41904;DHT22;27586;51.124;4.182;2023-08-30T05:11:52;13.90;99.90
41904;DHT22;27586;51.124;4.182;2023-08-30T05:14:18;13.90;99.90
41904;DHT22;27586;51.124;4.182;2023-08-30T05:16:43;14.00;99.90
41904;DHT22;27586;51.124;4.182;2023-08-30T05:19:09;14.10;99.90
41904;DHT22;27586;51.124;4.182;2023-08-30T05:21:35;14.20;99.90
41904;DHT22;27586;51.124;4.182;2023-08-30T05:24:01;14.20;99.90
41904;DHT22;27586;51.124;4.182;2023-08-30T05:26:28;14.00;99.90
41904;DHT22;27586;51.124;4.182;2023-08-30T05:28:53;14.00;99.90
41904;DHT22;27586;51.124;4.182;2023-08-30T05:31:19;14.00;99.90
41904;DHT22;27586;51.124;4.182;2023-08-30T05:33:44;14.00;99.90
41904;DHT22;27586;51.124;4.182;2023-08-30T05:36:10;14.00;99.90
41904;DHT22;27586;51.124;4.182;2023-08-30T05:38:36;14.10;99.90
41904;DHT22;27586;51.124;4.182;2023-08-30T05:41:01;14.00;99.90
41904;DHT22;27586;51.124;4.182;2023-08-30T05:43:27;14.00;99.90
41904;DHT22;27586;51.124;4.182;2023-08-30T05:45:53;14.00;99.90
41904;DHT22;27586;51.124;4.182;2023-08-30T05:48:18;13.90;99.90
41904;DHT22;27586;51.124;4.182;2023-08-30T05:50:44;13.90;99.90
41904;DHT22;27586;51.124;4.182;2023-08-30T05:53:10;13.90;99.90
41904;DHT22;27586;51.124;4.182;2023-08-30T05:55:36;13.90;99.90
41904;DHT22;27586;51.124;4.182;2023-08-30T05:58:03;14.00;99.90
41904;DHT22;27586;51.124;4.182;2023-08-30T06:00:28;14.00;99.90
41904;DHT22;27586;51.124;4.182;2023-08-30T06:02:54;14.00;99.90
41904;DHT22;27586;51.124;4.182;2023-08-30T06:05:20;14.10;99.90
41904;DHT22;27586;51.124;4.182;2023-08-30T06:07:45;14.10;99.90
41904;DHT22;27586;51.124;4.182;2023-08-30T06:10:12;14.10;99.90
41904;DHT22;27586;51.124;4.182;2023-08-30T06:12:37;14.20;99.90
41904;DHT22;27586;51.124;4.182;2023-08-30T06:15:03;14.30;99.90
41904;DHT22;27586;51.124;4.182;2023-08-30T06:17:29;14.30;99.90
41904;DHT22;27586;51.124;4.182;2023-08-30T06:19:55;14.40;99.90
41904;DHT22;27586;51.124;4.182;2023-08-30T06:22:20;14.40;99.90
41904;DHT22;27586;51.124;4.182;2023-08-30T06:24:46;14.40;99.90
41904;DHT22;27586;51.124;4.182;2023-08-30T06:27:12;14.40;99.90
41904;DHT22;27586;51.124;4.182;2023-08-30T06:29:37;14.40;99.90
41904;DHT22;27586;51.124;4.182;2023-08-30T06:32:04;14.40;99.90
41904;DHT22;27586;51.124;4.182;2023-08-30T06:34:29;14.40;99.90
41904;DHT22;27586;51.124;4.182;2023-08-30T06:36:55;14.50;99.90
41904;DHT22;27586;51.124;4.182;2023-08-30T06:39:21;14.50;99.90
41904;DHT22;27586;51.124;4.182;2023-08-30T06:41:46;14.40;99.90
41904;DHT22;27586;51.124;4.182;2023-08-30T06:44:12;14.40;99.90
41904;DHT22;27586;51.124;4.182;2023-08-30T06:46:38;14.40;99.90
41904;DHT22;27586;51.124;4.182;2023-08-30T06:49:04;14.40;99.90
41904;DHT22;27586;51.124;4.182;2023-08-30T06:51:30;14.50;99.90
41904;DHT22;27586;51.124;4.182;2023-08-30T06:53:56;14.40;99.90
41904;DHT22;27586;51.124;4.182;2023-08-30T06:56:26;14.60;99.90
41904;DHT22;27586;51.124;4.182;2023-08-30T06:58:51;14.60;99.90
41904;DHT22;27586;51.124;4.182;2023-08-30T07:01:17;14.70;99.90
41904;DHT22;27586;51.124;4.182;2023-08-30T07:03:43;14.60;99.90
41904;DHT22;27586;51.124;4.182;2023-08-30T07:06:09;14.60;99.90
41904;DHT22;27586;51.124;4.182;2023-08-30T07:08:35;14.70;99.90
41904;DHT22;27586;51.124;4.182;2023-08-30T07:11:00;14.70;99.90
41904;DHT22;27586;51.124;4.182;2023-08-30T07:13:26;14.70;99.90
41904;DHT22;27586;51.124;4.182;2023-08-30T07:15:52;14.70;99.90
41904;DHT22;27586;51.124;4.182;2023-08-30T07:18:17;14.80;99.90
41904;DHT22;27586;51.124;4.182;2023-08-30T07:20:43;14.80;99.90
41904;DHT22;27586;51.124;4.182;2023-08-30T07:23:09;14.80;99.90
41904;DHT22;27586;51.124;4.182;2023-08-30T07:25:37;14.80;99.90
41904;DHT22;27586;51.124;4.182;2023-08-30T07:28:03;14.90;99.90
41904;DHT22;27586;51.124;4.182;2023-08-30T07:30:29;15.00;99.90
41904;DHT22;27586;51.124;4.182;2023-08-30T07:32:55;14.90;99.90
41904;DHT22;27586;51.124;4.182;2023-08-30T07:35:21;14.90;99.90
41904;DHT22;27586;51.124;4.182;2023-08-30T07:37:47;14.90;99.90
41904;DHT22;27586;51.124;4.182;2023-08-30T07:40:12;15.00;99.90
41904;DHT22;27586;51.124;4.182;2023-08-30T07:42:38;15.10;99.90
41904;DHT22;27586;51.124;4.182;2023-08-30T07:45:04;15.20;99.90
41904;DHT22;27586;51.124;4.182;2023-08-30T07:47:30;15.30;99.90
41904;DHT22;27586;51.124;4.182;2023-08-30T07:49:56;15.30;99.90
41904;DHT22;27586;51.124;4.182;2023-08-30T07:52:22;15.40;99.90
41904;DHT22;27586;51.124;4.182;2023-08-30T07:54:47;15.30;99.90
41904;DHT22;27586;51.124;4.182;2023-08-30T07:57:13;15.40;99.90
41904;DHT22;27586;51.124;4.182;2023-08-30T07:59:39;15.50;99.90
41904;DHT22;27586;51.124;4.182;2023-08-30T08:02:05;15.40;99.90
41904;DHT22;27586;51.124;4.182;2023-08-30T08:04:35;15.50;99.90
41904;DHT22;27586;51.124;4.182;2023-08-30T08:07:02;15.50;99.90
41904;DHT22;27586;51.124;4.182;2023-08-30T08:09:28;15.70;99.90
41904;DHT22;27586;51.124;4.182;2023-08-30T08:11:54;15.80;99.90
41904;DHT22;27586;51.124;4.182;2023-08-30T08:14:22;15.90;99.90
41904;DHT22;27586;51.124;4.182;2023-08-30T08:16:48;16.00;99.90
41904;DHT22;27586;51.124;4.182;2023-08-30T08:19:13;16.00;99.90
41904;DHT22;27586;51.124;4.182;2023-08-30T08:21:39;16.10;99.90
41904;DHT22;27586;51.124;4.182;2023-08-30T08:24:05;16.10;99.90
41904;DHT22;27586;51.124;4.182;2023-08-30T08:26:31;16.20;99.90
41904;DHT22;27586;51.124;4.182;2023-08-30T08:28:56;16.20;99.90
41904;DHT22;27586;51.124;4.182;2023-08-30T08:31:22;16.20;99.90
41904;DHT22;27586;51.124;4.182;2023-08-30T08:34:05;16.30;99.90
41904;DHT22;27586;51.124;4.182;2023-08-30T08:36:30;16.40;99.90
41904;DHT22;27586;51.124;4.182;2023-08-30T08:38:56;16.20;99.90
41904;DHT22;27586;51.124;4.182;2023-08-30T08:41:23;16.20;99.90
41904;DHT22;27586;51.124;4.182;2023-08-30T08:43:53;16.30;99.90
41904;DHT22;27586;51.124;4.182;2023-08-30T08:46:20;16.30;99.90
41904;DHT22;27586;51.124;4.182;2023-08-30T08:48:48;16.40;99.90
41904;DHT22;27586;51.124;4.182;2023-08-30T08:51:15;16.50;99.90
41904;DHT22;27586;51.124;4.182;2023-08-30T08:53:41;16.50;99.90
41904;DHT22;27586;51.124;4.182;2023-08-30T08:56:07;16.70;99.90
41904;DHT22;27586;51.124;4.182;2023-08-30T08:58:36;16.70;99.90
41904;DHT22;27586;51.124;4.182;2023-08-30T09:01:03;16.90;99.90
41904;DHT22;27586;51.124;4.182;2023-08-30T09:03:30;17.10;99.90
41904;DHT22;27586;51.124;4.182;2023-08-30T09:05:58;17.20;99.90
41904;DHT22;27586;51.124;4.182;2023-08-30T09:08:24;17.40;99.90
41904;DHT22;27586;51.124;4.182;2023-08-30T09:10:51;17.50;99.90
41904;DHT22;27586;51.124;4.182;2023-08-30T09:13:17;17.60;99.90
41904;DHT22;27586;51.124;4.182;2023-08-30T09:15:45;17.70;99.90
41904;DHT22;27586;51.124;4.182;2023-08-30T09:18:17;17.80;99.90
41904;DHT22;27586;51.124;4.182;2023-08-30T09:20:44;17.80;99.90
41904;DHT22;27586;51.124;4.182;2023-08-30T09:23:22;17.70;99.90
41904;DHT22;27586;51.124;4.182;2023-08-30T09:25:58;17.80;99.90
41904;DHT22;27586;51.124;4.182;2023-08-30T09:28:24;17.80;99.90
41904;DHT22;27586;51.124;4.182;2023-08-30T09:30:50;17.80;99.90
41904;DHT22;27586;51.124;4.182;2023-08-30T09:33:21;18.00;99.90
41904;DHT22;27586;51.124;4.182;2023-08-30T09:35:47;18.40;99.90
41904;DHT22;27586;51.124;4.182;2023-08-30T09:38:17;18.70;99.90
41904;DHT22;27586;51.124;4.182;2023-08-30T09:40:43;18.70;99.90
41904;DHT22;27586;51.124;4.182;2023-08-30T09:43:10;18.70;99.90
41904;DHT22;27586;51.124;4.182;2023-08-30T09:45:36;18.60;99.90
41904;DHT22;27586;51.124;4.182;2023-08-30T09:48:03;18.40;99.90
41904;DHT22;27586;51.124;4.182;2023-08-30T09:50:33;18.20;99.90
41904;DHT22;27586;51.124;4.182;2023-08-30T09:53:00;18.00;99.90
41904;DHT22;27586;51.124;4.182;2023-08-30T09:55:28;17.90;99.90
41904;DHT22;27586;51.124;4.182;2023-08-30T09:57:54;17.90;99.90
41904;DHT22;27586;51.124;4.182;2023-08-30T10:00:20;17.90;99.90
41904;DHT22;27586;51.124;4.182;2023-08-30T10:02:46;17.80;99.90
41904;DHT22;27586;51.124;4.182;2023-08-30T10:05:12;17.90;99.90
41904;DHT22;27586;51.124;4.182;2023-08-30T10:07:43;18.10;99.90
41904;DHT22;27586;51.124;4.182;2023-08-30T10:10:10;18.20;99.90
41904;DHT22;27586;51.124;4.182;2023-08-30T10:12:36;18.10;99.90
41904;DHT22;27586;51.124;4.182;2023-08-30T10:15:02;18.00;99.90
41904;DHT22;27586;51.124;4.182;2023-08-30T10:17:31;18.20;99.90
41904;DHT22;27586;51.124;4.182;2023-08-30T10:19:59;18.60;99.90
41904;DHT22;27586;51.124;4.182;2023-08-30T10:22:27;18.70;99.90
41904;DHT22;27586;51.124;4.182;2023-08-30T10:24:57;18.10;99.90
41904;DHT22;27586;51.124;4.182;2023-08-30T10:27:24;17.70;99.90
41904;DHT22;27586;51.124;4.182;2023-08-30T10:29:51;17.50;99.90
41904;DHT22;27586;51.124;4.182;2023-08-30T10:32:21;17.40;99.90
41904;DHT22;27586;51.124;4.182;2023-08-30T10:34:48;17.20;99.90
41904;DHT22;27586;51.124;4.182;2023-08-30T10:37:15;17.40;99.90
41904;DHT22;27586;51.124;4.182;2023-08-30T10:39:41;17.70;99.90
41904;DHT22;27586;51.124;4.182;2023-08-30T10:42:15;17.90;99.90
41904;DHT22;27586;51.124;4.182;2023-08-30T10:44:51;17.70;99.90
41904;DHT22;27586;51.124;4.182;2023-08-30T10:47:27;17.50;99.90
41904;DHT22;27586;51.124;4.182;2023-08-30T10:49:58;17.40;99.90
41904;DHT22;27586;51.124;4.182;2023-08-30T10:52:24;17.30;99.90
41904;DHT22;27586;51.124;4.182;2023-08-30T10:54:51;17.30;99.90
41904;DHT22;27586;51.124;4.182;2023-08-30T10:57:36;17.40;99.90
41904;DHT22;27586;51.124;4.182;2023-08-30T11:00:09;17.40;99.90
41904;DHT22;27586;51.124;4.182;2023-08-30T11:02:38;17.30;99.90
41904;DHT22;27586;51.124;4.182;2023-08-30T11:05:06;17.40;99.90
41904;DHT22;27586;51.124;4.182;2023-08-30T11:07:32;17.70;99.90
41904;DHT22;27586;51.124;4.182;2023-08-30T11:09:58;17.60;99.90
41904;DHT22;27586;51.124;4.182;2023-08-30T11:12:24;17.50;99.90
41904;DHT22;27586;51.124;4.182;2023-08-30T11:14:55;17.70;99.90
41904;DHT22;27586;51.124;4.182;2023-08-30T11:17:22;18.00;99.90
41904;DHT22;27586;51.124;4.182;2023-08-30T11:19:51;18.00;99.90
41904;DHT22;27586;51.124;4.182;2023-08-30T11:22:17;18.00;99.90
41904;DHT22;27586;51.124;4.182;2023-08-30T11:24:43;18.20;99.90
41904;DHT22;27586;51.124;4.182;2023-08-30T11:27:09;18.30;99.90
41904;DHT22;27586;51.124;4.182;2023-08-30T11:29:35;18.40;99.90
41904;DHT22;27586;51.124;4.182;2023-08-30T11:32:01;18.50;99.90
41904;DHT22;27586;51.124;4.182;2023-08-30T11:34:26;18.80;99.90
41904;DHT22;27586;51.124;4.182;2023-08-30T11:36:52;18.90;99.90
41904;DHT22;27586;51.124;4.182;2023-08-30T11:39:19;18.50;99.90
41904;DHT22;27586;51.124;4.182;2023-08-30T11:41:46;18.70;99.90
41904;DHT22;27586;51.124;4.182;2023-08-30T11:44:12;18.70;99.90
41904;DHT22;27586;51.124;4.182;2023-08-30T11:46:38;18.60;99.90
41904;DHT22;27586;51.124;4.182;2023-08-30T11:49:03;18.40;99.90
41904;DHT22;27586;51.124;4.182;2023-08-30T11:51:29;18.30;99.90
41904;DHT22;27586;51.124;4.182;2023-08-30T11:53:56;18.30;99.90
41904;DHT22;27586;51.124;4.182;2023-08-30T11:56:23;18.40;99.90
41904;DHT22;27586;51.124;4.182;2023-08-30T11:58:49;18.70;99.90
41904;DHT22;27586;51.124;4.182;2023-08-30T12:01:14;19.00;99.90
41904;DHT22;27586;51.124;4.182;2023-08-30T12:03:41;19.10;99.90
41904;DHT22;27586;51.124;4.182;2023-08-30T12:06:13;19.10;99.90
41904;DHT22;27586;51.124;4.182;2023-08-30T12:08:39;18.90;99.90
41904;DHT22;27586;51.124;4.182;2023-08-30T12:11:05;18.30;99.90
41904;DHT22;27586;51.124;4.182;2023-08-30T12:13:34;18.20;99.90
41904;DHT22;27586;51.124;4.182;2023-08-30T12:16:01;18.40;99.90
41904;DHT22;27586;51.124;4.182;2023-08-30T12:18:32;18.40;99.90
41904;DHT22;27586;51.124;4.182;2023-08-30T12:21:02;18.10;99.90
41904;DHT22;27586;51.124;4.182;2023-08-30T12:23:32;18.10;99.90
41904;DHT22;27586;51.124;4.182;2023-08-30T12:28:30;18.60;99.90
41904;DHT22;27586;51.124;4.182;2023-08-30T12:30:57;18.80;99.90
41904;DHT22;27586;51.124;4.182;2023-08-30T12:33:23;19.10;99.90
41904;DHT22;27586;51.124;4.182;2023-08-30T12:35:51;19.10;99.90
41904;DHT22;27586;51.124;4.182;2023-08-30T12:38:17;18.60;99.90
41904;DHT22;27586;51.124;4.182;2023-08-30T12:40:51;18.50;99.90
41904;DHT22;27586;51.124;4.182;2023-08-30T12:43:17;18.60;99.90
41904;DHT22;27586;51.124;4.182;2023-08-30T12:45:44;18.80;99.90
41904;DHT22;27586;51.124;4.182;2023-08-30T12:48:10;19.00;99.90
41904;DHT22;27586;51.124;4.182;2023-08-30T12:50:37;19.00;99.90
41904;DHT22;27586;51.124;4.182;2023-08-30T12:53:06;18.80;99.90
41904;DHT22;27586;51.124;4.182;2023-08-30T12:55:32;18.90;99.90
41904;DHT22;27586;51.124;4.182;2023-08-30T12:57:59;18.90;99.90
41904;DHT22;27586;51.124;4.182;2023-08-30T13:00:25;18.90;99.90
41904;DHT22;27586;51.124;4.182;2023-08-30T13:02:51;19.00;99.90
41904;DHT22;27586;51.124;4.182;2023-08-30T13:05:17;18.80;99.90
41904;DHT22;27586;51.124;4.182;2023-08-30T13:07:43;18.60;99.90
41904;DHT22;27586;51.124;4.182;2023-08-30T13:10:09;18.40;99.90
41904;DHT22;27586;51.124;4.182;2023-08-30T13:12:35;18.40;99.90
41904;DHT22;27586;51.124;4.182;2023-08-30T13:15:01;18.40;99.90
41904;DHT22;27586;51.124;4.182;2023-08-30T13:17:27;18.50;99.90
41904;DHT22;27586;51.124;4.182;2023-08-30T13:19:53;18.40;99.90
41904;DHT22;27586;51.124;4.182;2023-08-30T13:22:18;18.50;99.90
41904;DHT22;27586;51.124;4.182;2023-08-30T13:24:44;18.60;99.90
41904;DHT22;27586;51.124;4.182;2023-08-30T13:27:10;18.50;99.90
41904;DHT22;27586;51.124;4.182;2023-08-30T13:29:37;18.40;99.90
41904;DHT22;27586;51.124;4.182;2023-08-30T13:32:02;18.20;99.90
41904;DHT22;27586;51.124;4.182;2023-08-30T13:34:28;17.90;99.90
41904;DHT22;27586;51.124;4.182;2023-08-30T13:36:54;17.90;99.90
41904;DHT22;27586;51.124;4.182;2023-08-30T13:39:20;18.10;99.90
41904;DHT22;27586;51.124;4.182;2023-08-30T13:41:46;18.50;99.90
41904;DHT22;27586;51.124;4.182;2023-08-30T13:44:13;18.60;99.90
41904;DHT22;27586;51.124;4.182;2023-08-30T13:46:38;18.60;99.90
41904;DHT22;27586;51.124;4.182;2023-08-30T13:49:04;18.70;99.90
41904;DHT22;27586;51.124;4.182;2023-08-30T13:51:30;18.70;99.90
41904;DHT22;27586;51.124;4.182;2023-08-30T13:53:56;18.70;99.90
41904;DHT22;27586;51.124;4.182;2023-08-30T13:56:23;18.90;99.90
41904;DHT22;27586;51.124;4.182;2023-08-30T13:58:49;19.10;99.90
41904;DHT22;27586;51.124;4.182;2023-08-30T14:01:14;19.40;99.90
41904;DHT22;27586;51.124;4.182;2023-08-30T14:03:40;19.50;99.90
41904;DHT22;27586;51.124;4.182;2023-08-30T14:06:06;19.30;99.90
41904;DHT22;27586;51.124;4.182;2023-08-30T14:08:31;19.30;99.90
41904;DHT22;27586;51.124;4.182;2023-08-30T14:10:57;19.30;99.90
41904;DHT22;27586;51.124;4.182;2023-08-30T14:13:23;19.30;99.90
41904;DHT22;27586;51.124;4.182;2023-08-30T14:15:49;19.30;99.90
41904;DHT22;27586;51.124;4.182;2023-08-30T14:18:15;19.20;99.90
41904;DHT22;27586;51.124;4.182;2023-08-30T14:20:42;19.00;99.90
41904;DHT22;27586;51.124;4.182;2023-08-30T14:23:08;19.10;99.90
41904;DHT22;27586;51.124;4.182;2023-08-30T14:25:35;19.30;99.90
41904;DHT22;27586;51.124;4.182;2023-08-30T14:28:01;19.10;99.90
41904;DHT22;27586;51.124;4.182;2023-08-30T14:30:27;19.10;99.90
41904;DHT22;27586;51.124;4.182;2023-08-30T14:32:52;18.90;99.90
41904;DHT22;27586;51.124;4.182;2023-08-30T14:35:18;18.90;99.90
41904;DHT22;27586;51.124;4.182;2023-08-30T14:37:52;18.60;99.90
41904;DHT22;27586;51.124;4.182;2023-08-30T14:40:18;18.70;99.90
41904;DHT22;27586;51.124;4.182;2023-08-30T14:42:43;18.80;99.90
41904;DHT22;27586;51.124;4.182;2023-08-30T14:45:09;18.90;99.90
41904;DHT22;27586;51.124;4.182;2023-08-30T14:47:35;18.80;99.90
41904;DHT22;27586;51.124;4.182;2023-08-30T14:50:01;18.70;99.90
41904;DHT22;27586;51.124;4.182;2023-08-30T14:52:29;18.60;99.90
41904;DHT22;27586;51.124;4.182;2023-08-30T14:54:54;18.30;99.90
41904;DHT22;27586;51.124;4.182;2023-08-30T14:57:20;18.30;99.90
41904;DHT22;27586;51.124;4.182;2023-08-30T14:59:47;18.40;99.90
41904;DHT22;27586;51.124;4.182;2023-08-30T15:02:13;18.20;99.90
41904;DHT22;27586;51.124;4.182;2023-08-30T15:04:39;18.20;99.90
41904;DHT22;27586;51.124;4.182;2023-08-30T15:07:05;18.30;99.90
41904;DHT22;27586;51.124;4.182;2023-08-30T15:09:31;18.00;99.90
41904;DHT22;27586;51.124;4.182;2023-08-30T15:11:56;17.80;99.90
41904;DHT22;27586;51.124;4.182;2023-08-30T15:14:25;17.80;99.90
41904;DHT22;27586;51.124;4.182;2023-08-30T15:16:51;17.90;99.90
41904;DHT22;27586;51.124;4.182;2023-08-30T15:19:17;17.90;99.90
41904;DHT22;27586;51.124;4.182;2023-08-30T15:21:42;17.90;99.90
41904;DHT22;27586;51.124;4.182;2023-08-30T15:24:08;18.00;99.90
41904;DHT22;27586;51.124;4.182;2023-08-30T15:26:34;18.20;99.90
41904;DHT22;27586;51.124;4.182;2023-08-30T15:29:00;18.30;99.90
41904;DHT22;27586;51.124;4.182;2023-08-30T15:31:26;18.40;99.90